Time;durP1;ratioP1;P1;durP2;ratioP2;P2;SDS_P1;SDS_P2;PMS_P1;PMS_P2;Temp;Humidity;BMP_temperature;BMP_pressure;BME280_temperature;BME280_humidity;BME280_pressure;Samples;Min_cycle;Max_cycle;Signal;HPM_P1;HPM_P2
2023/09/12 00:01:06;;;;;;;27.42;24.52;;;18.10;99.90;;;;;;4594411;19;20026;-73
2023/09/12 00:02:41;;;;;;;;;;;18.10;99.90;;;;;;4593344;19;20470;-73
2023/09/12 00:04:17;;;;;;;26.67;24.08;;;18.10;99.90;;;;;;4594816;19;19915;-73
2023/09/12 00:05:58;;;;;;;26.90;24.23;;;18.00;99.90;;;;;;4594187;19;19995;-73
2023/09/12 00:07:33;;;;;;;27.35;24.52;;;18.00;99.90;;;;;;4592874;19;20389;-73
2023/09/12 00:09:08;;;;;;;26.70;24.08;;;18.00;99.90;;;;;;4593745;19;20082;-73
2023/09/12 00:10:43;;;;;;;25.90;23.17;;;18.00;99.90;;;;;;4593776;19;20015;-73
2023/09/12 00:12:18;;;;;;;26.65;23.95;;;18.00;99.90;;;;;;4592829;19;20059;-73
2023/09/12 00:13:53;;;;;;;25.55;22.38;;;18.00;99.90;;;;;;4592340;19;20371;-73
2023/09/12 00:15:27;;;;;;;25.40;22.30;;;18.00;99.90;;;;;;4593829;19;20006;-73
2023/09/12 00:17:02;;;;;;;25.55;22.95;;;18.00;99.90;;;;;;4596319;19;20033;-73
2023/09/12 00:18:39;;;;;;;25.13;22.65;;;18.00;99.90;;;;;;4596479;19;20003;-73
2023/09/12 00:20:15;;;;;;;25.52;22.73;;;18.00;99.90;;;;;;4591748;19;20019;-73
2023/09/12 00:21:50;;;;;;;23.95;21.45;;;18.00;99.90;;;;;;4591914;19;20017;-73
2023/09/12 00:23:24;;;;;;;26.38;22.85;;;18.00;99.90;;;;;;4592782;19;20005;-73
2023/09/12 00:24:59;;;;;;;23.10;17.98;;;17.90;99.90;;;;;;4592728;19;20035;-73
2023/09/12 00:26:36;;;;;;;25.30;22.65;;;17.90;99.90;;;;;;4593690;19;20015;-73
2023/09/12 00:28:11;;;;;;;28.30;25.35;;;17.90;99.90;;;;;;4593885;19;20003;-73
2023/09/12 00:29:46;;;;;;;25.08;22.58;;;17.90;99.90;;;;;;4592800;19;20007;-73
2023/09/12 00:31:21;;;;;;;27.48;24.75;;;17.90;99.90;;;;;;4594080;19;20290;-73
2023/09/12 00:32:55;;;;;;;29.17;26.17;;;17.90;99.90;;;;;;4592469;19;20002;-73
2023/09/12 00:34:29;;;;;;;28.25;25.35;;;17.90;99.90;;;;;;4593163;19;20022;-73
2023/09/12 00:36:04;;;;;;;27.38;24.45;;;17.90;99.90;;;;;;4593815;19;20007;-73
2023/09/12 00:37:39;;;;;;;28.25;25.40;;;17.90;99.90;;;;;;4593713;19;20009;-72
2023/09/12 00:39:14;;;;;;;26.63;23.92;;;17.90;99.90;;;;;;4593704;19;20002;-73
2023/09/12 00:40:49;;;;;;;26.00;23.27;;;17.90;99.90;;;;;;4593692;19;20050;-72
2023/09/12 00:42:26;;;;;;;25.02;22.45;;;17.90;99.90;;;;;;4593395;19;20454;-73
2023/09/12 00:44:02;;;;;;;26.67;24.15;;;17.90;99.90;;;;;;4592138;19;19999;-73
2023/09/12 00:45:39;;;;;;;25.45;22.80;;;17.80;99.90;;;;;;4593017;19;20457;-73
2023/09/12 00:47:13;;;;;;;26.65;23.88;;;17.80;99.90;;;;;;4593425;19;20035;-73
2023/09/12 00:48:48;;;;;;;26.55;23.75;;;17.80;99.90;;;;;;4593476;19;20342;-73
2023/09/12 00:50:23;;;;;;;26.90;23.98;;;17.80;99.90;;;;;;4593120;19;20355;-73
2023/09/12 00:51:57;;;;;;;26.98;24.38;;;17.80;99.90;;;;;;4595300;19;20029;-73
2023/09/12 00:53:32;;;;;;;26.85;24.17;;;17.80;99.90;;;;;;4592056;19;20442;-73
2023/09/12 00:55:07;;;;;;;25.15;22.60;;;17.80;99.90;;;;;;4593139;19;20014;-73
2023/09/12 00:56:41;;;;;;;25.10;22.58;;;17.70;99.90;;;;;;4591819;19;20002;-73
2023/09/12 00:58:15;;;;;;;26.25;23.55;;;17.80;99.90;;;;;;4592952;19;19998;-73
2023/09/12 00:59:53;;;;;;;27.52;24.65;;;17.80;99.90;;;;;;4591975;19;20006;-73
2023/09/12 01:01:27;;;;;;;25.95;23.35;;;17.80;99.90;;;;;;4592981;19;19998;-73
2023/09/12 01:03:01;;;;;;;26.67;24.00;;;17.80;99.90;;;;;;4592423;19;20010;-73
2023/09/12 01:04:37;;;;;;;26.77;24.00;;;17.80;99.90;;;;;;4592835;19;20013;-73
2023/09/12 01:06:11;;;;;;;27.90;25.10;;;17.70;99.90;;;;;;4591538;19;20027;-73
2023/09/12 01:07:47;;;;;;;27.45;24.65;;;17.70;99.90;;;;;;4592719;19;20463;-73
2023/09/12 01:09:22;;;;;;;26.98;24.27;;;17.60;99.90;;;;;;4591272;19;20312;-73
2023/09/12 01:10:57;;;;;;;26.92;24.17;;;17.70;99.90;;;;;;4592882;19;20018;-73
2023/09/12 01:12:31;;;;;;;25.27;22.73;;;17.60;99.90;;;;;;4591681;19;20002;-73
2023/09/12 01:14:07;;;;;;;26.70;24.10;;;17.60;99.90;;;;;;4592734;19;20441;-73
2023/09/12 01:15:42;;;;;;;25.48;22.98;;;17.60;99.90;;;;;;4591334;19;20116;-73
2023/09/12 01:17:15;;;;;;;26.55;24.00;;;17.60;99.90;;;;;;4592388;19;20003;-73
2023/09/12 01:18:50;;;;;;;26.05;23.60;;;17.60;99.90;;;;;;4591394;19;20003;-73
2023/09/12 01:20:31;;;;;;;25.52;23.00;;;17.60;99.90;;;;;;4591826;19;20014;-73
2023/09/12 01:22:29;;;;;;;25.73;22.77;;;17.60;99.90;;;;;;4591213;19;20006;-73
2023/09/12 01:24:08;;;;;;;25.13;22.73;;;17.60;99.90;;;;;;4591514;19;20309;-73
2023/09/12 01:25:54;;;;;;;26.13;23.40;;;17.60;99.90;;;;;;4592152;19;20374;-73
2023/09/12 01:27:47;;;;;;;25.95;23.35;;;17.50;99.90;;;;;;4591073;19;20007;-73
2023/09/12 01:29:22;;;;;;;26.02;23.52;;;17.50;99.90;;;;;;4591134;19;20112;-73
2023/09/12 01:30:56;;;;;;;26.88;24.38;;;17.50;99.90;;;;;;4592568;19;20018;-73
2023/09/12 01:32:31;;;;;;;26.02;23.42;;;17.50;99.90;;;;;;4592552;19;20073;-73
2023/09/12 01:34:14;;;;;;;26.45;23.90;;;17.50;99.90;;;;;;4591254;19;20010;-73
2023/09/12 01:35:47;;;;;;;25.23;22.70;;;17.50;99.90;;;;;;4592349;19;20009;-73
2023/09/12 01:37:23;;;;;;;25.58;23.25;;;17.50;99.90;;;;;;4592519;19;20021;-73
2023/09/12 01:38:58;;;;;;;24.63;22.33;;;17.50;99.90;;;;;;4592210;19;20014;-73
2023/09/12 01:40:44;;;;;;;26.92;24.25;;;17.50;99.90;;;;;;4592238;19;20441;-73
2023/09/12 01:42:20;;;;;;;27.77;25.08;;;17.50;99.90;;;;;;4590897;19;20006;-73
2023/09/12 01:43:56;;;;;;;27.45;24.77;;;17.50;99.90;;;;;;4590985;19;20007;-73
2023/09/12 01:45:30;;;;;;;27.63;24.92;;;17.50;99.90;;;;;;4590797;19;20002;-73
2023/09/12 01:47:05;;;;;;;28.40;25.55;;;17.50;99.90;;;;;;4591765;19;20303;-73
2023/09/12 01:48:40;;;;;;;29.55;26.70;;;17.50;99.90;;;;;;4591999;19;20010;-72
2023/09/12 01:50:14;;;;;;;28.90;26.10;;;17.40;99.90;;;;;;4591318;19;20109;-73
2023/09/12 01:51:48;;;;;;;28.30;25.65;;;17.40;99.90;;;;;;4591148;19;20003;-73
2023/09/12 01:53:25;;;;;;;28.17;25.38;;;17.40;99.90;;;;;;4590934;19;19998;-72
2023/09/12 01:54:59;;;;;;;29.27;26.38;;;17.40;99.90;;;;;;4590535;19;20033;-73
2023/09/12 01:56:33;;;;;;;29.60;26.73;;;17.40;99.90;;;;;;4590533;19;20011;-73
2023/09/12 01:58:08;;;;;;;29.25;26.45;;;17.40;99.90;;;;;;4591630;19;19999;-73
2023/09/12 01:59:42;;;;;;;31.42;28.10;;;17.40;99.90;;;;;;4591695;19;19999;-73
2023/09/12 02:01:17;;;;;;;29.45;26.40;;;17.40;99.90;;;;;;4593086;19;20018;-73
2023/09/12 02:02:54;;;;;;;29.42;26.65;;;17.40;99.90;;;;;;4591383;19;20007;-73
2023/09/12 02:04:28;;;;;;;27.05;24.42;;;17.40;99.90;;;;;;4591361;19;20010;-73
2023/09/12 02:06:03;;;;;;;28.33;25.50;;;17.40;99.90;;;;;;4591402;19;19999;-73
2023/09/12 02:07:38;;;;;;;28.48;25.77;;;17.40;99.90;;;;;;4591770;19;20014;-73
2023/09/12 02:09:14;;;;;;;29.90;26.77;;;17.40;99.90;;;;;;4590371;19;20003;-73
2023/09/12 02:10:48;;;;;;;29.83;26.70;;;17.30;99.90;;;;;;4591641;19;20091;-73
2023/09/12 02:12:23;;;;;;;29.80;26.70;;;17.30;99.90;;;;;;4591973;19;20005;-73
2023/09/12 02:13:57;;;;;;;30.75;27.50;;;17.30;99.90;;;;;;4591779;19;20006;-73
2023/09/12 02:15:32;;;;;;;29.88;26.80;;;17.30;99.90;;;;;;4591831;19;20003;-73
2023/09/12 02:17:07;;;;;;;29.63;26.52;;;17.30;99.90;;;;;;4591717;19;20007;-73
2023/09/12 02:18:41;;;;;;;29.88;26.85;;;17.30;99.90;;;;;;4591526;19;19995;-73
2023/09/12 02:20:16;;;;;;;28.55;25.85;;;17.30;99.90;;;;;;4591095;19;20078;-73
2023/09/12 02:21:53;;;;;;;29.23;26.35;;;17.30;99.90;;;;;;4593482;19;20017;-73
2023/09/12 02:23:27;;;;;;;29.00;26.08;;;17.30;99.90;;;;;;4595197;19;20027;-73
2023/09/12 02:25:02;;;;;;;28.60;25.70;;;17.30;99.90;;;;;;4598200;19;20303;-73
2023/09/12 02:26:39;;;;;;;28.25;25.35;;;17.20;99.90;;;;;;4596256;19;20010;-73
2023/09/12 02:28:13;;;;;;;27.02;24.38;;;17.20;99.90;;;;;;4596248;19;20003;-73
2023/09/12 02:29:47;;;;;;;28.88;25.95;;;17.20;99.90;;;;;;4595377;19;20017;-73
2023/09/12 02:31:22;;;;;;;27.70;25.00;;;17.20;99.90;;;;;;4596122;19;19999;-73
2023/09/12 02:32:56;;;;;;;27.45;24.55;;;17.20;99.90;;;;;;4596072;19;20010;-73
2023/09/12 02:34:31;;;;;;;28.10;25.20;;;17.20;99.90;;;;;;4596037;19;20033;-73
2023/09/12 02:36:07;;;;;;;28.77;25.92;;;17.20;99.90;;;;;;4596078;19;20383;-73
2023/09/12 02:37:42;;;;;;;29.35;26.50;;;17.10;99.90;;;;;;4594984;19;19999;-73
2023/09/12 02:39:18;;;;;;;30.73;27.60;;;17.10;99.90;;;;;;4594460;19;20480;-73
2023/09/12 02:40:55;;;;;;;32.15;29.08;;;17.20;99.90;;;;;;4595263;19;20036;-73
2023/09/12 02:42:30;;;;;;;30.85;27.75;;;17.20;99.90;;;;;;4595987;19;20081;-73
2023/09/12 02:44:05;;;;;;;30.85;27.92;;;17.20;99.90;;;;;;4595996;19;20027;-73
2023/09/12 02:45:40;;;;;;;30.50;27.38;;;17.10;99.90;;;;;;4595913;19;20074;-73
2023/09/12 02:47:15;;;;;;;29.98;27.10;;;17.10;99.90;;;;;;4595714;19;20017;-73
2023/09/12 02:48:49;;;;;;;30.20;27.30;;;17.10;99.90;;;;;;4596261;19;20009;-73
2023/09/12 02:50:25;;;;;;;34.50;30.85;;;17.10;99.90;;;;;;4595334;19;20471;-73
2023/09/12 02:52:00;;;;;;;30.30;27.20;;;17.10;99.90;;;;;;4595638;19;20425;-73
2023/09/12 02:53:34;;;;;;;33.08;29.48;;;17.10;99.90;;;;;;4595664;19;20005;-73
2023/09/12 02:55:09;;;;;;;31.52;28.25;;;17.10;99.90;;;;;;4594787;19;20007;-73
2023/09/12 02:56:44;;;;;;;29.38;26.27;;;17.10;99.90;;;;;;4594314;19;20081;-73
2023/09/12 02:58:19;;;;;;;29.02;26.05;;;17.10;99.90;;;;;;4594271;19;20013;-73
2023/09/12 02:59:54;;;;;;;30.08;26.88;;;17.10;99.90;;;;;;4594529;19;20010;-73
2023/09/12 03:01:27;;;;;;;30.63;27.45;;;17.00;99.90;;;;;;4595773;19;20009;-73
2023/09/12 03:03:03;;;;;;;31.65;28.25;;;17.10;99.90;;;;;;4594713;19;20007;-73
2023/09/12 03:04:38;;;;;;;35.72;31.88;;;17.00;99.90;;;;;;4595366;19;20426;-73
2023/09/12 03:06:13;;;;;;;33.95;30.42;;;17.00;99.90;;;;;;4595670;19;20017;-73
2023/09/12 03:07:47;;;;;;;29.70;26.63;;;17.00;99.90;;;;;;4595599;19;20024;-73
2023/09/12 03:09:22;;;;;;;30.73;27.63;;;17.10;99.90;;;;;;4595577;19;20073;-73
2023/09/12 03:11:01;;;;;;;34.33;30.73;;;17.00;99.90;;;;;;4595535;19;20023;-73
2023/09/12 03:12:38;;;;;;;33.20;29.65;;;17.00;99.90;;;;;;4596045;19;20071;-73
2023/09/12 03:14:14;;;;;;;31.42;28.30;;;17.00;99.90;;;;;;4595764;19;20011;-73
2023/09/12 03:15:48;;;;;;;33.63;30.38;;;17.00;99.90;;;;;;4595991;19;20013;-73
2023/09/12 03:17:22;;;;;;;31.40;28.30;;;17.10;99.90;;;;;;4595589;19;20089;-73
2023/09/12 03:19:00;;;;;;;32.20;28.75;;;17.10;99.90;;;;;;4595616;19;20002;-73
2023/09/12 03:20:34;;;;;;;31.52;28.35;;;17.10;99.90;;;;;;4593554;19;20078;-73
2023/09/12 03:22:08;;;;;;;31.55;28.35;;;17.10;99.90;;;;;;4594168;19;20057;-73
2023/09/12 03:23:43;;;;;;;31.30;28.10;;;17.10;99.90;;;;;;4594551;19;20300;-73
2023/09/12 03:25:17;;;;;;;31.17;27.98;;;17.10;99.90;;;;;;4595673;19;20054;-73
2023/09/12 03:26:52;;;;;;;30.55;27.40;;;17.00;99.90;;;;;;4595425;19;20429;-73
2023/09/12 03:28:28;;;;;;;29.98;27.08;;;17.10;99.90;;;;;;4594183;19;20006;-73
2023/09/12 03:30:03;;;;;;;30.83;27.67;;;17.00;99.90;;;;;;4594212;19;20018;-73
2023/09/12 03:31:38;;;;;;;30.33;27.23;;;17.00;99.90;;;;;;4595567;19;20288;-73
2023/09/12 03:33:13;;;;;;;32.33;29.17;;;17.00;99.90;;;;;;4595649;19;20013;-73
2023/09/12 03:34:48;;;;;;;34.92;31.25;;;17.00;99.90;;;;;;4595160;19;20009;-73
2023/09/12 03:36:22;;;;;;;32.90;29.60;;;17.00;99.90;;;;;;4595242;19;19999;-73
2023/09/12 03:37:57;;;;;;;31.88;28.75;;;17.00;99.90;;;;;;4595101;19;20015;-73
2023/09/12 03:39:31;;;;;;;31.42;28.15;;;17.00;99.90;;;;;;4595426;19;20004;-73
2023/09/12 03:41:05;;;;;;;34.00;30.38;;;17.00;99.90;;;;;;4595233;19;20038;-73
2023/09/12 03:42:41;;;;;;;31.80;28.63;;;17.00;99.90;;;;;;4594869;19;20002;-73
2023/09/12 03:44:17;;;;;;;32.38;29.13;;;17.10;99.90;;;;;;4595292;19;20001;-72
2023/09/12 03:45:51;;;;;;;33.47;30.27;;;17.00;99.90;;;;;;4594858;19;20069;-73
2023/09/12 03:47:26;;;;;;;33.22;30.02;;;17.00;99.90;;;;;;4595269;19;20010;-73
2023/09/12 03:49:00;;;;;;;31.92;28.70;;;17.10;99.90;;;;;;4594938;19;20003;-73
2023/09/12 03:50:35;;;;;;;31.73;28.52;;;17.10;99.90;;;;;;4594776;19;20094;-73
2023/09/12 03:52:11;;;;;;;31.80;28.70;;;17.00;99.90;;;;;;4595259;19;20074;-74
2023/09/12 03:53:47;;;;;;;32.25;29.08;;;17.00;99.90;;;;;;4594867;19;20002;-73
2023/09/12 03:55:21;;;;;;;30.25;27.25;;;17.00;99.90;;;;;;4595210;19;20014;-73
2023/09/12 03:56:57;;;;;;;33.10;29.75;;;17.00;99.90;;;;;;4593525;19;20078;-73
2023/09/12 03:58:34;;;;;;;32.78;29.50;;;17.00;99.90;;;;;;4593478;19;20010;-73
2023/09/12 04:00:08;;;;;;;30.23;27.23;;;17.00;99.90;;;;;;4593834;19;20457;-73
2023/09/12 04:01:44;;;;;;;31.92;28.83;;;17.10;99.90;;;;;;4594830;19;20036;-73
2023/09/12 04:03:18;;;;;;;32.42;29.15;;;17.00;99.90;;;;;;4594127;19;20333;-73
2023/09/12 04:04:52;;;;;;;31.02;27.85;;;17.00;99.90;;;;;;4594656;19;20024;-73
2023/09/12 04:06:27;;;;;;;32.08;28.98;;;17.00;99.90;;;;;;4594922;19;20414;-73
2023/09/12 04:08:01;;;;;;;31.73;28.52;;;17.00;99.90;;;;;;4594627;19;20002;-73
2023/09/12 04:09:35;;;;;;;29.85;26.92;;;17.00;99.90;;;;;;4594275;19;20058;-73
2023/09/12 04:11:11;;;;;;;30.27;27.20;;;17.00;99.90;;;;;;4594490;19;20418;-73
2023/09/12 04:12:45;;;;;;;28.23;25.42;;;17.00;99.90;;;;;;4593947;19;20433;-74
2023/09/12 04:14:19;;;;;;;29.00;26.15;;;17.00;99.90;;;;;;4593997;19;20014;-73
2023/09/12 04:15:54;;;;;;;29.83;26.98;;;16.90;99.90;;;;;;4594354;19;20085;-73
2023/09/12 04:17:28;;;;;;;30.88;27.65;;;16.90;99.90;;;;;;4595234;19;20021;-73
2023/09/12 04:19:03;;;;;;;28.98;26.08;;;16.90;99.90;;;;;;4594576;19;20006;-74
2023/09/12 04:20:39;;;;;;;28.50;25.65;;;16.90;99.90;;;;;;4593650;19;20018;-73
2023/09/12 04:22:14;;;;;;;29.02;26.23;;;16.90;99.90;;;;;;4595861;19;20021;-73
2023/09/12 04:23:50;;;;;;;29.20;26.10;;;16.90;99.90;;;;;;4593189;19;20007;-74
2023/09/12 04:25:26;;;;;;;28.73;25.70;;;16.90;99.90;;;;;;4594348;19;20005;-73
2023/09/12 04:27:01;;;;;;;30.63;27.45;;;16.90;99.90;;;;;;4594520;19;19994;-72
2023/09/12 04:28:35;;;;;;;30.50;27.52;;;16.80;99.90;;;;;;4594141;19;20307;-72
2023/09/12 04:30:10;;;;;;;30.33;27.20;;;16.80;99.90;;;;;;4593648;19;20440;-72
2023/09/12 04:31:44;;;;;;;30.00;27.00;;;16.80;99.90;;;;;;4593998;19;20022;-73
2023/09/12 04:33:19;;;;;;;29.70;26.67;;;16.80;99.90;;;;;;4594375;19;20006;-72
2023/09/12 04:34:55;;;;;;;28.60;25.63;;;16.80;99.90;;;;;;4594066;19;20471;-73
2023/09/12 04:36:29;;;;;;;30.05;27.13;;;16.90;99.90;;;;;;4592760;19;20089;-72
2023/09/12 04:38:04;;;;;;;28.65;25.75;;;16.90;99.90;;;;;;4593636;19;20002;-73
2023/09/12 04:39:39;;;;;;;30.98;27.67;;;16.90;99.90;;;;;;4594097;19;20010;-73
2023/09/12 04:41:18;;;;;;;27.58;24.95;;;16.90;99.90;;;;;;4595812;19;20018;-72
2023/09/12 04:42:54;;;;;;;28.60;25.63;;;16.90;99.90;;;;;;4593671;19;20010;-72
2023/09/12 04:44:31;;;;;;;29.73;26.88;;;16.90;99.90;;;;;;4592609;19;20014;-72
2023/09/12 04:46:07;;;;;;;30.00;26.90;;;16.90;99.90;;;;;;4593906;19;20028;-72
2023/09/12 04:47:41;;;;;;;28.25;25.42;;;17.00;99.90;;;;;;4593758;19;19998;-73
2023/09/12 04:49:16;;;;;;;27.10;24.48;;;17.00;99.90;;;;;;4592845;19;20013;-72
2023/09/12 04:50:52;;;;;;;28.75;25.85;;;17.00;99.90;;;;;;4593332;19;20051;-72
2023/09/12 04:52:26;;;;;;;29.83;26.95;;;16.90;99.90;;;;;;4593934;19;20016;-73
2023/09/12 04:54:01;;;;;;;29.00;26.05;;;16.90;99.90;;;;;;4593942;19;20013;-73
2023/09/12 04:55:38;;;;;;;29.38;26.35;;;16.90;99.90;;;;;;4593872;19;20006;-72
2023/09/12 04:57:12;;;;;;;28.30;25.58;;;16.90;99.90;;;;;;4593619;19;20006;-73
2023/09/12 04:58:48;;;;;;;29.90;27.08;;;16.90;99.90;;;;;;4593926;19;20446;-73
2023/09/12 05:00:22;;;;;;;29.35;26.45;;;17.00;99.90;;;;;;4593084;19;20018;-72
2023/09/12 05:01:56;;;;;;;29.70;26.73;;;17.00;99.90;;;;;;4593780;19;20036;-73
2023/09/12 05:03:33;;;;;;;28.50;25.65;;;17.00;99.90;;;;;;4592923;19;20007;-73
2023/09/12 05:05:07;;;;;;;30.27;27.23;;;17.00;99.90;;;;;;4593460;19;20485;-74
2023/09/12 05:06:42;;;;;;;29.80;26.70;;;17.00;99.90;;;;;;4593331;19;20429;-73
2023/09/12 05:08:22;;;;;;;29.98;27.13;;;17.00;99.90;;;;;;4593718;19;20006;-72
2023/09/12 05:09:56;;;;;;;30.55;27.55;;;17.00;99.90;;;;;;4592563;19;20029;-72
2023/09/12 05:11:30;;;;;;;29.35;26.42;;;17.10;99.90;;;;;;4593590;19;20002;-72
2023/09/12 05:13:07;;;;;;;29.38;26.40;;;17.10;99.90;;;;;;4593356;19;20007;-72
2023/09/12 05:14:41;;;;;;;31.02;28.02;;;17.10;99.90;;;;;;4593173;19;19999;-71
2023/09/12 05:16:15;;;;;;;30.35;27.10;;;17.10;99.90;;;;;;4593149;19;20327;-72
2023/09/12 05:17:51;;;;;;;30.77;27.58;;;17.20;99.90;;;;;;4593276;19;19999;-72
2023/09/12 05:19:26;;;;;;;27.42;24.73;;;17.20;99.90;;;;;;4593370;19;20003;-72
2023/09/12 05:21:02;;;;;;;29.45;26.52;;;17.20;99.90;;;;;;4591828;19;20018;-72
2023/09/12 05:22:38;;;;;;;28.52;25.63;;;17.20;99.90;;;;;;4593112;19;20006;-72
2023/09/12 05:24:12;;;;;;;30.08;27.02;;;17.20;99.90;;;;;;4592975;19;20345;-72
2023/09/12 05:25:46;;;;;;;28.55;25.75;;;17.20;99.90;;;;;;4591678;19;20006;-72
2023/09/12 05:27:21;;;;;;;28.85;25.98;;;17.20;99.90;;;;;;4592756;19;20013;-72
2023/09/12 05:28:56;;;;;;;31.08;27.95;;;17.20;99.90;;;;;;4593146;19;20422;-72
2023/09/12 05:30:30;;;;;;;30.20;27.20;;;17.20;99.90;;;;;;4592781;19;20026;-72
2023/09/12 05:32:08;;;;;;;29.17;26.23;;;17.30;99.90;;;;;;4592953;19;20013;-73
2023/09/12 05:33:42;;;;;;;30.05;27.15;;;17.30;99.90;;;;;;4592886;19;20306;-73
2023/09/12 05:35:15;;;;;;;29.10;26.17;;;17.30;99.90;;;;;;4593116;19;20442;-73
2023/09/12 05:36:50;;;;;;;29.48;26.30;;;17.30;99.90;;;;;;4591513;19;20440;-73
2023/09/12 05:38:25;;;;;;;29.85;26.95;;;17.40;99.90;;;;;;4592354;19;19998;-73
2023/09/12 05:39:59;;;;;;;30.52;27.55;;;17.40;99.90;;;;;;4592096;19;20097;-73
2023/09/12 05:41:35;;;;;;;31.27;28.08;;;17.40;99.90;;;;;;4592553;19;20074;-73
2023/09/12 05:43:11;;;;;;;31.52;28.55;;;17.40;99.90;;;;;;4591658;19;20070;-73
2023/09/12 05:44:46;;;;;;;31.02;28.05;;;17.50;99.90;;;;;;4590593;19;20446;-73
2023/09/12 05:46:22;;;;;;;35.72;31.92;;;17.50;99.90;;;;;;4591927;19;20070;-73
2023/09/12 05:47:55;;;;;;;33.20;29.80;;;17.60;99.90;;;;;;4591011;19;20094;-73
2023/09/12 05:49:30;;;;;;;33.35;29.90;;;17.60;99.90;;;;;;4591991;19;20478;-73
2023/09/12 05:51:07;;;;;;;34.47;31.08;;;17.60;99.90;;;;;;4591137;19;20334;-72
2023/09/12 05:52:42;;;;;;;34.75;31.40;;;17.60;99.90;;;;;;4591592;19;19998;-73
2023/09/12 05:54:16;;;;;;;33.65;30.25;;;17.60;99.90;;;;;;4592799;19;20052;-73
2023/09/12 05:55:52;;;;;;;34.72;31.33;;;17.70;99.90;;;;;;4588673;19;20013;-73
2023/09/12 05:57:26;;;;;;;35.28;31.77;;;17.70;99.90;;;;;;4591842;19;20009;-73
2023/09/12 05:59:00;;;;;;;34.80;31.50;;;17.70;99.90;;;;;;4592267;19;20003;-73
2023/09/12 06:00:35;;;;;;;37.00;33.35;;;17.70;99.90;;;;;;4591636;19;20430;-73
2023/09/12 06:02:10;;;;;;;35.28;31.85;;;17.80;99.90;;;;;;4591878;19;20464;-73
2023/09/12 06:03:45;;;;;;;35.20;31.48;;;17.80;99.90;;;;;;4589672;19;20307;-73
2023/09/12 06:05:20;;;;;;;35.05;31.55;;;17.80;99.90;;;;;;4591708;19;20011;-73
2023/09/12 06:06:55;;;;;;;35.92;32.42;;;17.90;99.90;;;;;;4591635;19;20006;-73
2023/09/12 06:08:29;;;;;;;36.70;33.30;;;17.90;99.90;;;;;;4590337;19;20010;-72
2023/09/12 06:10:05;;;;;;;37.60;33.92;;;18.00;99.90;;;;;;4590541;19;20143;-73
2023/09/12 06:11:39;;;;;;;37.72;34.13;;;18.00;99.90;;;;;;4591610;19;20019;-73
2023/09/12 06:13:13;;;;;;;36.03;32.67;;;18.00;99.90;;;;;;4591620;19;20296;-73
2023/09/12 06:14:48;;;;;;;38.50;34.80;;;18.00;99.90;;;;;;4591592;19;20066;-73
2023/09/12 06:16:24;;;;;;;35.80;32.40;;;18.10;99.90;;;;;;4590401;19;20003;-73
2023/09/12 06:17:58;;;;;;;36.22;32.92;;;18.10;99.90;;;;;;4592882;19;20011;-73
2023/09/12 06:19:33;;;;;;;36.40;32.90;;;18.10;99.90;;;;;;4591820;19;20003;-73
2023/09/12 06:21:08;;;;;;;37.38;33.88;;;18.10;99.90;;;;;;4591327;19;20023;-73
2023/09/12 06:22:43;;;;;;;37.60;33.90;;;18.20;99.90;;;;;;4591305;19;20322;-73
2023/09/12 06:24:23;;;;;;;37.55;34.00;;;18.20;99.90;;;;;;4591339;19;20449;-73
2023/09/12 06:25:59;;;;;;;38.80;35.15;;;18.20;99.90;;;;;;4589844;19;20017;-73
2023/09/12 06:27:33;;;;;;;37.03;33.42;;;18.30;99.90;;;;;;4590896;19;20018;-73
2023/09/12 06:29:08;;;;;;;36.03;32.53;;;18.30;99.90;;;;;;4591175;19;20162;-73
2023/09/12 06:30:42;;;;;;;36.80;33.40;;;18.30;99.90;;;;;;4590993;19;20024;-73
2023/09/12 06:32:17;;;;;;;36.20;32.70;;;18.30;99.90;;;;;;4591057;19;20002;-73
2023/09/12 06:33:53;;;;;;;34.83;31.52;;;18.40;99.90;;;;;;4589833;19;19995;-72
2023/09/12 06:35:27;;;;;;;39.38;35.67;;;18.40;99.90;;;;;;4590636;19;20070;-73
2023/09/12 06:37:01;;;;;;;37.03;33.63;;;18.40;99.90;;;;;;4591055;19;20002;-73
2023/09/12 06:38:36;;;;;;;35.00;31.63;;;18.50;99.90;;;;;;4591193;19;20025;-73
2023/09/12 06:40:10;;;;;;;36.83;33.20;;;18.50;99.90;;;;;;4591058;19;20034;-72
2023/09/12 06:41:45;;;;;;;35.83;32.50;;;18.50;99.90;;;;;;4591201;19;20402;-73
2023/09/12 06:43:21;;;;;;;37.40;33.80;;;18.50;99.90;;;;;;4590580;19;20321;-73
2023/09/12 11:57:25;;;;;;;9.02;8.18;;;23.70;99.90;;;;;;4578552;19;21121;-70
2023/09/12 11:59:02;;;;;;;10.10;8.63;;;23.70;99.90;;;;;;4594548;19;20010;-69
2023/09/12 12:00:37;;;;;;;10.75;8.00;;;23.70;99.90;;;;;;4594547;19;20025;-69
2023/09/12 12:02:12;;;;;;;9.75;8.85;;;23.80;99.90;;;;;;4594868;19;20051;-69
2023/09/12 12:03:52;;;;;;;9.85;8.45;;;23.80;99.90;;;;;;4594138;19;20011;-69
2023/09/12 12:05:29;;;;;;;9.15;8.23;;;23.90;99.90;;;;;;4594830;19;20035;-70
2023/09/12 12:07:06;;;;;;;11.85;9.13;;;24.00;99.90;;;;;;4593908;19;20002;-70
2023/09/12 12:08:42;;;;;;;9.85;8.85;;;24.00;99.90;;;;;;4594576;19;20065;-69
2023/09/12 12:10:19;;;;;;;9.18;8.27;;;23.70;99.90;;;;;;4593201;19;19999;-70
2023/09/12 12:11:54;;;;;;;9.23;8.32;;;23.60;99.90;;;;;;4594067;19;20023;-70
2023/09/12 12:13:30;;;;;;;10.30;9.30;;;23.70;99.90;;;;;;4594168;19;20472;-70
2023/09/12 12:15:04;;;;;;;9.77;8.68;;;23.70;99.90;;;;;;4593818;19;19999;-71
2023/09/12 12:16:39;;;;;;;10.05;9.05;;;23.70;99.90;;;;;;4591962;19;20014;-71
2023/09/12 12:18:15;;;;;;;8.98;8.13;;;23.70;99.90;;;;;;4593451;19;20007;-71
2023/09/12 12:19:50;;;;;;;9.73;8.82;;;23.80;99.90;;;;;;4594010;19;20078;-71
2023/09/12 12:21:24;;;;;;;10.25;9.15;;;23.80;99.90;;;;;;4594036;19;20082;-71
2023/09/12 12:23:00;;;;;;;9.65;8.75;;;23.80;99.90;;;;;;4592609;19;20010;-71
2023/09/12 12:24:41;;;;;;;9.70;8.77;;;23.90;99.90;;;;;;4594012;19;20005;-71
2023/09/12 12:26:16;;;;;;;10.93;9.27;;;23.90;99.90;;;;;;4593337;19;20010;-72
2023/09/12 12:27:52;;;;;;;9.60;8.65;;;23.90;99.90;;;;;;4593083;19;19998;-72
2023/09/12 12:29:26;;;;;;;9.27;8.40;;;23.90;99.90;;;;;;4592842;19;20074;-71
2023/09/12 12:31:01;;;;;;;9.23;8.32;;;24.00;99.90;;;;;;4593826;19;20003;-71
2023/09/12 12:32:51;;;;;;;9.65;8.75;;;24.00;99.90;;;;;;4593000;19;20449;-71
2023/09/12 12:34:26;;;;;;;9.25;8.35;;;24.00;99.90;;;;;;4593164;19;20434;-71
2023/09/12 12:36:07;;;;;;;9.43;8.50;;;24.10;99.90;;;;;;4594116;19;19998;-71
2023/09/12 12:37:44;;;;;;;9.73;8.73;;;24.10;99.90;;;;;;4592809;19;20006;-71
2023/09/12 12:39:18;;;;;;;10.40;8.10;;;24.10;99.90;;;;;;4594280;19;20444;-71
2023/09/12 12:40:52;;;;;;;10.15;8.88;;;24.20;99.90;;;;;;4592754;19;20005;-72
2023/09/12 12:42:38;;;;;;;8.98;8.07;;;24.20;99.90;;;;;;4593730;19;20006;-71
2023/09/12 12:44:13;;;;;;;10.50;8.68;;;24.20;99.90;;;;;;4591755;19;20006;-71
2023/09/12 12:45:57;;;;;;;9.50;8.45;;;24.30;99.90;;;;;;4593705;19;20013;-70
2023/09/12 12:47:34;;;;;;;8.93;8.13;;;24.30;99.90;;;;;;4591488;19;20014;-73
2023/09/12 12:49:08;;;;;;;11.93;8.85;;;24.30;99.90;;;;;;4593633;19;20430;-70
2023/09/12 12:50:43;;;;;;;10.38;8.43;;;24.30;99.90;;;;;;4592011;19;20021;-72
2023/09/12 12:52:24;;;;;;;11.23;8.93;;;24.30;99.90;;;;;;4593691;19;20013;-71
2023/09/12 12:54:06;;;;;;;9.35;8.32;;;24.40;99.90;;;;;;4593817;19;20007;-72
2023/09/12 12:55:40;;;;;;;10.07;8.93;;;24.40;99.90;;;;;;4593824;19;20489;-70
2023/09/12 12:57:22;;;;;;;9.38;8.38;;;24.30;99.90;;;;;;4591561;19;20448;-71
2023/09/12 12:58:57;;;;;;;9.90;8.90;;;24.30;99.90;;;;;;4592667;19;20007;-71
2023/09/12 13:00:32;;;;;;;9.85;8.70;;;24.40;99.90;;;;;;4592255;19;20025;-71
2023/09/12 13:02:08;;;;;;;10.18;7.95;;;24.40;99.90;;;;;;4593636;19;20010;-70
2023/09/12 13:03:43;;;;;;;9.63;8.73;;;24.40;99.90;;;;;;4593107;19;20010;-70
2023/09/12 13:05:26;;;;;;;9.63;8.68;;;24.40;99.90;;;;;;4592790;19;20021;-71
2023/09/12 13:07:02;;;;;;;9.07;8.25;;;24.40;99.90;;;;;;4591335;19;20484;-70
2023/09/12 13:08:37;;;;;;;10.10;9.10;;;24.50;99.90;;;;;;4592646;19;20058;-71
2023/09/12 13:10:11;;;;;;;9.85;8.88;;;24.50;99.90;;;;;;4593234;19;19998;-69
2023/09/12 13:11:47;;;;;;;10.05;9.05;;;24.50;99.90;;;;;;4593844;19;19999;-71
2023/09/12 13:13:21;;;;;;;9.18;8.38;;;24.50;99.90;;;;;;4593193;19;20007;-72
2023/09/12 13:14:56;;;;;;;9.13;8.23;;;24.40;99.90;;;;;;4593140;19;20007;-71
2023/09/12 13:16:32;;;;;;;9.98;8.98;;;24.50;99.90;;;;;;4592910;19;20023;-70
2023/09/12 13:18:07;;;;;;;9.35;8.43;;;24.50;99.90;;;;;;4592975;19;20009;-70
2023/09/12 13:19:41;;;;;;;11.07;8.70;;;24.60;99.90;;;;;;4592081;19;20002;-71